x

9410230 - La Jolla, Ca (ljac1) Weather Station

1:12 - Sun 25th Sep 2016 All times are PDT. -7 hours from GMT.

  • Wind
    5mph, 6mph gusts
  • Sea Temp 61°f
  • Air Temp 73°f
  • Sea Pressure 1013.8mb
  • 9410230 - La Jolla, Ca
  • 9410230 - La Jolla, Ca

More Historic Weather Station data

Upgrade to MSW Pro to gain access to the past 30 days of data for over 8000 Wavebouys and Weather Stations around the globe.

Join Pro

Comparision Forecast

View Surf forecast
   
dim. 09/25 1:12 5 6 mph 1013.8mb 61f 73f
1:06 3 5 mph 1013.9mb 62f 74f
1:00 5 6 mph 1014mb 62f 74f
12:54 5 6 mph 1014mb 63f 74f
12:48 5 6 mph 1014.2mb 63f 75f
12:42 1 5 mph 1014.3mb 64f 75f
12:36 3 5 mph 1014.4mb 64f 74f
12:30 3 5 mph 1014.5mb 64f 74f
12:24 6
mph
1014.5mb 64f 74f
12:18 3 5 mph 1014.6mb 63f 75f
12:12  -  2 mph 1014.9mb 63f 76f
12:06 1 3 mph 1014.8mb 62f 76f
12:00 2 5 mph 1014.9mb 62f 74f
11:54 6 7 mph 1014.8mb 62f 73f
11:48 5 6 mph 1014.8mb 61f 72f
11:42 2
mph
1015mb 61f 74f
11:36 2
mph
1015.1mb 61f 74f
11:30 2 3 mph 1015.2mb 61f 73f
11:24 3 5 mph 1015.2mb 61f 72f
11:18 2 3 mph 1015.3mb 61f 73f
11:12 3
mph
1015.4mb 61f 73f
11:06 2 3 mph 1015.4mb 61f 73f
11:00 2 3 mph 1015.6mb 62f 72f
10:54 1 3 mph 1015.6mb 62f 73f
10:48 3 6 mph 1015.7mb 62f 72f
10:42 6
mph
1015.6mb 62f 72f
10:36 3 5 mph 1015.7mb 63f 73f
10:30 2
mph
1015.8mb 63f 74f
10:24 2 3 mph 1015.7mb 64f 72f
10:18 2 3 mph 1015.8mb 64f 71f
10:12 3
mph
1015.8mb 65f 71f
10:06 3 5 mph 1015.8mb 65f 70f
10:00 2 3 mph 1015.8mb 65f 71f
9:54 3 5 mph 1015.8mb 65f 70f
9:48 3
mph
1015.8mb 65f 70f
9:42 3
mph
1015.9mb 65f 71f
9:36 3 5 mph 1015.9mb 65f 72f
9:30 1 2 mph 1015.8mb 65f 73f
9:24 2 3 mph 1015.7mb 65f 71f
9:18 2 3 mph 1015.9mb 65f 71f
9:12 1 2 mph 1015.7mb 65f 72f
9:06 2 5 mph 1015.7mb 65f 72f
9:00 3 5 mph 1015.7mb 65f 72f
8:54 2
mph
1015.5mb 65f 73f
8:48 1 2 mph 1015.5mb 66f 76f
8:42  -  2 mph 1015.5mb 66f 75f
8:36  -  1 mph 1015.6mb 67f 76f
8:30  -  1 mph 1015.5mb 68f 74f
8:24 2
mph
1015.6mb 68f 73f
8:18  -  1 mph 1015.5mb 68f 74f
8:12 1
mph
1015.5mb 68f 75f
8:06  -  1 mph 1015.5mb 68f 75f
8:00  -  1 mph 1015.4mb 67f 76f
7:54  -  1 mph 1015.4mb 67f 73f
7:48 2
mph
1015.3mb 67f 72f
7:42  -  1 mph 1015.3mb 67f 73f
7:36 1 2 mph 1015.3mb 67f 72f
7:30 2
mph
1015.3mb 67f 70f
7:24  -  2 mph 1015.3mb 67f 70f
7:18 2
mph
1015.2mb 67f 68f
7:12 1 2 mph 1015.2mb 67f 67f
7:06 1 2 mph 1015.2mb 67f 67f
7:00 2 3 mph 1015.1mb 67f 67f
6:54 3
mph
1015.1mb 67f 67f
6:48 2 3 mph 1015.2mb 67f 67f
6:42 2 3 mph 1015.1mb 67f 67f
6:36 3
mph
1014.9mb 67f 68f
6:30 1 2 mph 1014.8mb 67f 67f
6:24  -  1 mph 1014.8mb 67f 66f
6:18  -  2 mph 1014.8mb 67f 67f
6:12  -  1 mph 1014.8mb 67f 66f
6:06  -  3 mph 1014.8mb 67f 66f
6:00 1 3 mph 1014.7mb 67f 67f
5:54  -  2 mph 1014.7mb 66f 67f
5:48  -  5 mph 1014.7mb 66f 67f
5:42 3
mph
1014.7mb 65f 67f
5:36 3
mph
1014.6mb 64f 68f
5:30  -  3 mph 1014.5mb 64f 68f
5:24 2 3 mph 1014.5mb 63f 68f
5:18 1 2 mph 1014.6mb 61f 68f
5:12 2
mph
1014.6mb 62f 68f
5:06 2
mph
1014.6mb 62f 68f
5:00 1 3 mph 1014.7mb 62f 68f
4:54 5 7 mph 1014.7mb 62f 69f
4:48 6 7 mph 1014.6mb 62f 69f
4:42 1 2 mph 1014.5mb 62f 67f
4:36 1 5 mph 1014.5mb 60f 67f
4:30 5
mph
1014.5mb 60f 68f
4:24 3
mph
1014.4mb 60f 68f
4:18 1 2 mph 1014.4mb 60f 68f
4:12  -  1 mph 1014.5mb 60f 68f
4:06  -  2 mph 1014.5mb 59f 68f
4:00 2
mph
1014.4mb 59f 68f
3:54 1 2 mph 1014.4mb 59f 67f
3:48 1
mph
1014.4mb 60f 67f
3:42  -  1 mph 1014.4mb 60f 67f
3:36  -  1 mph 1014.4mb 60f 67f
3:30 1 2 mph 1014.4mb 60f 67f
3:24 1 2 mph 1014.4mb 60f 67f
3:18 2
mph
1014.4mb 60f 67f
3:12 3
mph
1014.5mb 61f 67f
3:06 1 2 mph 1014.5mb 61f 67f
3:00 1 2 mph 1014.6mb 61f 67f
2:54  -  1 mph 1014.7mb 61f 67f
2:48  -  2 mph 1014.6mb 61f 68f
2:42 2
mph
1014.6mb 62f 68f
2:36  -  2 mph 1014.7mb 64f 68f
2:30 2 3 mph 1014.8mb 63f 68f
2:24 2
mph
1014.7mb 65f 67f
2:18  -  1 mph 1014.7mb 64f 67f
2:12  -  2 mph 1014.8mb 64f 67f
2:06 1 2 mph 1014.8mb 65f 67f
2:00 2
mph
1014.8mb 67f 67f
1:54  -  1 mph 1014.7mb 67f 67f
1:48  -  1 mph 1014.8mb 67f 68f
1:42 2
mph
1014.7mb 67f 68f
1:36  -  1 mph 1014.7mb 67f 68f
1:30  -  1 mph 1014.8mb 67f 68f
1:24  -  1 mph 1014.8mb 66f 69f
1:18  -  1 mph 1014.9mb 63f 69f
1:12 1
mph
1014.9mb 65f 69f
1:06 1 2 mph 1014.9mb 66f 69f
1:00  -  2 mph 1014.9mb 67f 69f
12:54  -  1 mph 1015mb 68f 68f
12:48  -  2 mph 1015.1mb 67f 69f
12:42 2
mph
1015.1mb 67f 69f
12:36 2
mph
1015.1mb 67f 70f
12:30  -  2 mph 1015.1mb 67f 70f
12:24 2
mph
1015mb 68f 70f
12:18 2 3 mph 1015mb 68f 69f
12:12 3
mph
1015mb 67f 69f
12:06 1 2 mph 1014.9mb 68f 69f
12:00  -  2 mph 1015mb 67f 69f
sam. 09/24 11:54  -  1 mph 1015.1mb 66f 69f
11:48  -  2 mph 1015.1mb 66f -
11:42 1 2 mph 1015.1mb 67f -
11:36  -  1 mph 1015.1mb 68f -
11:30  -  1 mph 1015.1mb 67f 71f
11:24 1 2 mph 1015.2mb 67f 71f
11:18 2 3 mph 1015.2mb 66f 70f
11:12 2 3 mph 1015.1mb 66f 69f
11:06 2
mph
1015.2mb 66f 70f
11:00  -  1 mph 1015.2mb 67f 71f
10:54 1 2 mph 1015.2mb 65f 71f
10:48 2
mph
- - -
10:42 2
mph
- - -
10:36 1
mph
- - -
10:30  -  1 mph 1015.3mb 65f 71f
10:24  -  1 mph 1015.3mb 64f 71f
10:18  -  1 mph 1015.3mb 65f 72f
10:12  -  1 mph 1015.3mb 64f 73f
10:06 1 3 mph 1015.2mb 64f 73f
10:00 1 2 mph 1015.2mb 64f 72f
9:54 2
mph
1015.1mb 64f 73f
9:48 1
mph
1015.1mb 64f 72f
9:42  -  1 mph 1015mb 65f 72f
9:36  -  1 mph 1015mb 66f 73f
9:30  -  1 mph 1015mb 67f 72f
9:24  -  1 mph 1015mb 68f 72f
9:18  -  1 mph 1015.1mb 68f 72f
9:12  -  mph 1015.1mb 68f 72f
9:06  -  1 mph 1015.1mb 68f 72f
9:00  -  1 mph 1015.1mb 68f 72f
8:54  -  1 mph 1015.1mb 68f 72f
8:48  -  1 mph 1015mb 68f 72f
8:42  -  1 mph 1015mb 68f 72f
8:36  -  2 mph 1015mb 68f 72f
8:30  -  1 mph 1015mb 69f 71f
8:24  -  1 mph 1015mb 69f 71f
8:18  -  1 mph 1014.9mb 69f 71f
8:12  -  2 mph 1014.9mb 69f 71f
8:06 1 2 mph 1014.8mb 69f 71f
8:00  -  2 mph 1014.7mb 69f 72f
7:54 2
mph
1014.6mb 70f 71f
7:48 1 3 mph 1014.6mb 70f 72f
7:42 1 2 mph 1014.6mb 70f 72f
7:36  -  1 mph 1014.5mb 70f 72f
7:30  -  3 mph 1014.5mb 69f 72f
7:24 1 2 mph 1014.5mb 69f 71f
7:18  -  2 mph 1014.3mb 69f 72f
7:12  -  2 mph 1014.2mb 69f 73f
7:06 1 3 mph 1014.2mb 69f 74f
7:00 3 5 mph 1014.2mb 69f 75f
6:54 5 6 mph 1014.1mb 69f 74f
6:48 5 6 mph 1014.1mb 69f 74f
6:42 3 6 mph 1014.1mb 70f 74f
6:36 5 6 mph 1014mb 70f 73f
6:30 5 6 mph 1014mb 69f -
6:24 6 8 mph 1014mb 69f -
6:18 6 7 mph 1014mb 69f 73f
6:12 6
mph
1014mb 69f 73f
6:06 6 7 mph 1014mb 69f 73f
6:00 6 7 mph 1014mb 69f 73f
5:54 6 7 mph 1014mb 69f 73f
5:48 6 7 mph 1014mb 69f 73f
5:42 7
mph
1014mb 69f 73f
5:36 6
mph
1014mb 69f 73f
5:30 5 6 mph 1014.1mb 69f 73f
5:24 5 6 mph 1014mb 69f 73f
5:18 6 7 mph 1014mb 69f 73f
5:12 6 7 mph 1014mb 69f 72f
5:06 6
mph
1014mb 69f 72f
5:00 5 6 mph 1014mb 69f 72f
4:54 5
mph
1014mb 69f 72f
4:48 5 6 mph 1014mb 69f -
4:42 3 5 mph 1014mb 69f -
4:36 3 5 mph 1014.1mb 69f -
4:30 5
mph
1014mb 69f 72f
4:24 3 5 mph 1014mb 69f 72f
4:18 3 5 mph 1014.1mb 69f 72f
4:12 5
mph
1014.1mb 69f 71f
4:06 5
mph
1014.1mb 69f 72f
4:00  -  mph 1014.2mb 69f 72f
3:54  -  mph 1014.2mb 69f 71f
3:48 5 6 mph 1014.2mb 69f -
3:42 5
mph
1014.2mb 70f -
3:36 5 6 mph 1014.2mb 69f -
3:30 6 7 mph - 69f -
3:24 7
mph
- 69f -
3:18 6 7 mph 1014.3mb 69f 71f
3:12 6 7 mph 1014.4mb 69f 71f
3:06 6 7 mph 1014.4mb 69f 72f
3:00 5 6 mph 1014.4mb 68f 72f
2:54 5 6 mph 1014.4mb 69f 72f
2:48 5 6 mph 1014.5mb 69f 72f
2:42 5 6 mph 1014.5mb 69f 72f
2:36 5 6 mph 1014.5mb 69f 72f
2:30 5 6 mph 1014.5mb 69f 72f
2:24 5 6 mph 1014.6mb 68f 72f
2:18 3 5 mph 1014.6mb 68f 72f
2:12 3
mph
1014.6mb 68f 73f
2:06 2 5 mph 1014.7mb 71f 73f
2:00 3 5 mph 1014.8mb 70f 72f
1:54 3 5 mph 1014.9mb 70f 72f
1:48 3 5 mph 1015mb 70f 72f
1:42 3 5 mph 1015.1mb 69f 73f
1:36 2 3 mph 1015.2mb 69f 74f
1:30 1 3 mph 1015.2mb 67f 75f
1:24 2 3 mph 1015.2mb 64f 74f
1:18 2 3 mph 1015.3mb 62f 74f
1:12 3 5 mph 1015.4mb 61f 73f
1:06 1 2 mph 1015.5mb 62f 73f
1:00 2 3 mph 1015.6mb 62f 73f
12:54 3
mph
1015.6mb 62f 73f
12:48 2
mph
1015.7mb 64f 74f
12:42 2 3 mph 1015.7mb 65f 73f
12:36 3 5 mph 1015.7mb 68f 72f
12:30 2 3 mph 1015.7mb 68f 73f
12:24 2
mph
1015.7mb 68f 74f
12:18 1 2 mph 1015.7mb 68f 74f
12:12 1
mph
1015.8mb 68f 76f
12:06  -  1 mph 1015.8mb 68f 78f
12:00  -  1 mph 1015.8mb 68f 78f
11:54  -  1 mph 1015.8mb 68f 76f
11:48  -  mph 1015.9mb 68f 75f
11:42  -  1 mph 1015.9mb 68f 74f
11:36  -  1 mph 1016mb 67f 73f
11:30  -  2 mph 1016.1mb 67f 73f
11:24 1 2 mph 1016.1mb 66f 72f
11:18 1 2 mph 1016.2mb 64f 72f
11:12 1 2 mph 1016.1mb 63f 72f
11:06 2
mph
1016.1mb 62f 71f
11:00 1 2 mph 1016.1mb 62f 71f
10:54 2 3 mph 1016.1mb 62f 71f
10:48 2
mph
1016.1mb 62f 71f
10:42 2 3 mph 1016.2mb 64f 71f
10:36 1 2 mph 1016.2mb 64f 72f
10:30 1 2 mph 1016.2mb 64f 72f
10:24 1 3 mph 1016.2mb 63f 71f
10:18 1 2 mph 1016.2mb 62f 70f
10:12 3 5 mph 1016.3mb 63f 70f
10:06 3 5 mph 1016.3mb 64f 69f
10:00 3
mph
1016.2mb 65f 70f
9:54 3
mph
1016.2mb 65f 69f
9:48 3
mph
1016.2mb 66f 69f
9:42 2 3 mph 1016.2mb 66f 69f
9:36 3 5 mph 1016.1mb 67f 69f
9:30 3 5 mph 1016.1mb 67f 69f
9:24 2 3 mph 1016mb 67f 70f
9:18 2
mph
1015.9mb - 72f
9:12 1
mph
1015.8mb - 75f
9:06  -  1 mph 1015.8mb - 75f
9:00  -  1 mph 1015.7mb 68f 76f
8:54  -  mph 1015.7mb 68f 77f
8:48  -  1 mph 1015.7mb 68f 74f
8:42  -  1 mph 1015.7mb 68f 73f
8:36 1 2 mph 1015.7mb 68f 70f
8:30 2
mph
1015.7mb 68f 70f
8:24  -  2 mph 1015.7mb 68f 71f
8:18 2
mph
1015.7mb 68f 70f
8:12 2
mph
1015.6mb 68f 70f
8:06 2
mph
1015.6mb 68f 70f
8:00 1 3 mph 1015.6mb 68f 69f
7:54 3 6 mph 1015.5mb 68f 69f
7:48 3 6 mph 1015.5mb 68f 69f
7:42 5 6 mph 1015.5mb 68f 70f
7:36 5 6 mph 1015.5mb 69f 68f
7:30 3 6 mph 1015.5mb 68f 68f
7:24 5 7 mph 1015.5mb 68f 68f
7:18 5 7 mph 1015.6mb 68f 67f
7:12 5 6 mph 1015.6mb 69f 67f
7:06 2 3 mph 1015.6mb 69f 66f
7:00 2 3 mph 1015.6mb 69f 66f
6:54 2 5 mph 1015.5mb 69f 66f
6:48 3 6 mph 1015.5mb 69f 65f
6:42 2 3 mph 1015.5mb 69f 66f
6:36 2 3 mph 1015.4mb 69f 66f
6:30  -  3 mph 1015.4mb 69f 66f
6:24 2 3 mph 1015.3mb 69f 65f
6:18  -  2 mph 1015.3mb 69f 65f
6:12 2
mph
1015.3mb 69f 65f
6:06 1 3 mph 1015.2mb 69f 65f
6:00 1 2 mph 1015mb 69f 65f
5:54  -  1 mph 1014.9mb 69f 65f
5:48 1 2 mph 1014.9mb 69f 65f
5:42  -  3 mph 1014.8mb 69f 65f
5:36 1 2 mph 1014.8mb 69f 65f
5:30 1 2 mph 1014.6mb 69f 65f
5:24 2 3 mph 1014.5mb 68f 65f
5:18 1 2 mph 1014.5mb 69f 65f
5:12 2 5 mph 1014.6mb 69f 65f
5:06 2 3 mph 1014.8mb 69f 65f
5:00 2
mph
1014.8mb 69f 65f
4:54 2 3 mph 1014.8mb 69f 65f
4:48  -  2 mph 1014.8mb 69f 66f
4:42 2 5 mph 1014.8mb 69f 66f
4:36 2 3 mph 1014.9mb 69f 66f
4:30  -  2 mph 1014.7mb 69f 65f
4:24 1 2 mph 1014.5mb 69f 66f
4:18 2
mph
1014.5mb 69f 66f
4:12 1 5 mph 1014.2mb 69f 65f
4:06 6 8 mph 1014.3mb 69f 65f
4:00 5
mph
1014.3mb 69f 66f
3:54 2 3 mph 1014.5mb 69f 65f
3:48  -  1 mph 1014.7mb 69f 65f
3:42  -  1 mph 1014.7mb 69f 65f
3:36  -  2 mph 1014.6mb 69f 65f
3:30 2
mph
1014.5mb 69f 65f
3:24 2
mph
1014.5mb 69f 65f
3:18 2 3 mph 1014.4mb 69f 64f
3:12 2 3 mph 1014.4mb 69f 65f
3:06 2 3 mph 1014.4mb 69f 66f
3:00 3
mph
1014.4mb 69f 65f
2:54 2 6 mph 1014.6mb 69f 65f
2:48 5
mph
1014.6mb 69f 65f
2:42 5 6 mph 1014.7mb 69f 65f
2:36 3 5 mph 1014.7mb 69f 65f
2:30 3 5 mph 1014.6mb 69f 65f
2:24 2 3 mph 1014.6mb 69f 66f
2:18 3 5 mph 1014.5mb 69f 66f
2:12 1 5 mph 1014.6mb 69f 66f
2:06 2 5 mph 1014.6mb 69f 66f
2:00 2 7 mph 1014.6mb 68f 66f
1:54 6 9 mph 1014.7mb 69f 66f
1:48 6 8 mph 1014.6mb 69f 66f
1:42 5 6 mph 1014.5mb 69f 67f
1:36 5 6 mph 1014.4mb 68f 67f
1:30 3 5 mph 1014.4mb 68f 66f
1:24 2 5 mph 1014.4mb 67f 65f
1:18 2 3 mph 1014.4mb 68f 65f
1:12 2 3 mph 1014.4mb 69f 66f
1:06 3 5 mph 1014.5mb 69f 67f
1:00 5 6 mph 1014.5mb 69f 66f
12:54 3 5 mph 1014.6mb 69f 66f
12:48 3 5 mph 1014.7mb 69f 66f
12:42 1 2 mph 1014.7mb 69f 66f
12:36  -  1 mph 1014.7mb 69f 66f
12:30 1 2 mph 1014.7mb 69f 66f
12:24  -  2 mph 1014.6mb 69f 66f
12:18  -  2 mph 1014.7mb 69f 66f
12:12 1 2 mph 1014.7mb 69f 66f
12:06 1
mph
1014.8mb 69f 66f
12:00 1 2 mph 1014.9mb 69f 66f
ven. 09/23 11:54  -  1 mph 1014.9mb 69f 66f
11:48  -  1 mph 1014.8mb 69f 66f
11:42  -  1 mph 1014.8mb 69f 66f
11:36  -  2 mph 1014.8mb 69f 67f
11:30 2
mph
1014.8mb 69f 67f
11:24 2
mph
1014.9mb 69f 66f
11:18 3
mph
1014.8mb 69f 66f
11:12 3
mph
1014.8mb 69f 65f
11:06 2 3 mph 1014.9mb 69f 66f
11:00  -  2 mph 1015mb 69f 67f
10:54 2
mph
1014.9mb 69f 67f
10:48 2
mph
1014.8mb 69f 67f
10:42  -  2 mph 1014.8mb 69f 67f
10:36 2 3 mph 1014.8mb 69f 67f
10:30 2
mph
1014.7mb 69f 67f
10:24 2 3 mph 1014.6mb 69f 67f
10:18 2
mph
1014.5mb 69f 67f
10:12 1 2 mph 1014.5mb 69f 67f
10:06 1 2 mph 1014.4mb 69f 66f
10:00  -  1 mph 1014.3mb 69f 67f
9:54  -  1 mph 1014.3mb 69f 67f
9:48  -  2 mph 1014.3mb 69f 66f
9:42 2 3 mph 1014.3mb 69f 67f
9:36  -  2 mph 1014.4mb 69f 68f
9:30 2 3 mph 1014.4mb 69f 68f
9:24 1 3 mph 1014.5mb 69f 68f
9:18 3 5 mph 1014.5mb 69f 68f
9:12 5
mph
1014.5mb 69f 68f
9:06 3 5 mph 1014.5mb 69f 68f
9:00 5 6 mph 1014.5mb 69f 68f
8:54 2 3 mph 1014.5mb 69f 68f
8:48 3
mph
1014.5mb 69f 68f
8:42 3
mph
1014.5mb 69f 68f
8:36 3
mph
1014.5mb 69f 68f
8:30 3 5 mph 1014.4mb 70f 68f
8:24 3 5 mph 1014.4mb 70f 68f
8:18 3 5 mph 1014.3mb 70f 67f
8:12 5 6 mph 1014.2mb 70f 67f
8:06 3 5 mph 1014.2mb 70f 67f
8:00 5 6 mph 1014.1mb 70f 68f
7:54 6 7 mph 1014mb 70f 68f
7:48 6 7 mph 1014.1mb 70f 68f
7:42 6 8 mph 1014.1mb 70f 68f
7:36 7
mph
1014.1mb 70f 68f
7:30 6 7 mph 1014.2mb 70f 68f
7:24 6 7 mph 1014.1mb 70f 68f
7:18 6 8 mph 1014.1mb 70f 68f
7:12 7 9 mph 1014.1mb 70f 68f
7:06 8 10 mph 1014mb 70f 68f
7:00 9 10 mph 1014mb 70f 68f
6:54 9 10 mph 1014.1mb 70f 68f
6:48 10 11 mph 1014.1mb 70f 68f
6:42 11 13 mph 1014mb 70f 68f
6:36 10 11 mph 1014.1mb 70f 68f
6:30 10 11 mph 1014mb 70f 68f
6:24 10 11 mph 1014mb 70f 68f
6:18 9 11 mph 1014.1mb 70f 68f
6:12 10 11 mph 1014mb 70f 69f
6:06 11 13 mph 1013.9mb 70f 69f
6:00 10 11 mph 1013.9mb 70f 69f
5:54 10 13 mph 1013.9mb 70f 69f
5:48  -  mph 1013.9mb 70f -
5:42  -  mph 1013.8mb 70f -
5:36  -  mph 1013.9mb 70f -
5:30 11 14 mph 1013.9mb 70f 69f
5:24 11 15 mph 1013.9mb 70f 69f
5:18 13 15 mph 1013.8mb 70f 69f
5:12 13 14 mph 1013.9mb 70f 69f
5:06 11 14 mph 1013.8mb 70f 69f
5:00 13 14 mph 1013.9mb 70f 69f
4:54 10 11 mph 1013.9mb 70f 69f
4:48 8 10 mph 1013.9mb 70f -
4:42 9 11 mph 1013.9mb 70f -
4:36 10 11 mph 1013.9mb 70f -
4:30 10 13 mph - 70f -
4:24 10 11 mph - 70f -
4:18 10 13 mph 1014mb 70f 68f
4:12 11 13 mph 1014.1mb 70f 68f
4:06 10 13 mph 1014mb 69f 68f
4:00 11 14 mph 1014mb 69f 68f
3:54 10 13 mph 1013.9mb 70f 68f
3:48 11 14 mph 1013.8mb 69f -
3:42 9 11 mph 1013.9mb 69f -
3:36 11 13 mph 1013.9mb 70f -
3:30 11 13 mph 1013.9mb 70f 68f
3:24 11 13 mph 1014mb 70f 68f
3:18 10 11 mph 1014mb 69f 68f
3:12 8 11 mph 1014.1mb 69f 68f
3:06 10 11 mph 1014.1mb 69f 68f
3:00 9 11 mph 1014mb 69f -
2:54 9 11 mph 1014.1mb 69f -
2:48 10 13 mph 1014.2mb 69f 68f
2:42 10 11 mph 1014.2mb 69f 68f
2:36 9 11 mph 1014.2mb 69f 67f
2:30 8 11 mph 1014.2mb 68f 68f
2:24 9 11 mph 1014.2mb 68f 68f
2:18 8 10 mph 1014.2mb 67f 68f
2:12 8 11 mph 1014.1mb 65f 68f
2:06 9 10 mph 1014.1mb 69f 67f
2:00 8 10 mph 1014.2mb 69f 67f
1:54 9 11 mph 1014.3mb 69f 67f
1:48 8 10 mph 1014.6mb 69f 68f
1:42 9 10 mph 1014.6mb 69f 68f
1:36 9 10 mph 1014.6mb 69f 68f
1:30 8 10 mph 1014.7mb 69f 68f
1:24 6 9 mph 1014.8mb 69f 68f
1:18 8 9 mph 1014.9mb 68f 68f
1:12 7 8 mph 1015mb 68f 68f
1:06 7 8 mph 1015mb 67f 68f
1:00 7 8 mph 1015.1mb 66f 67f
12:54 6 8 mph 1015.2mb 66f 67f
12:48 7 9 mph 1015.4mb 67f 67f
12:42 7 9 mph 1015.4mb 68f 67f
12:36 7 9 mph 1015.6mb 68f 67f
12:30 7 10 mph 1015.6mb 68f 67f
12:24 7 9 mph 1015.5mb 68f 67f
12:18 7 9 mph 1015.5mb 68f 67f
12:12 7 9 mph 1015.7mb 68f 66f
12:06 7 10 mph 1015.7mb 68f 67f
12:00 7 8 mph 1015.8mb 68f 67f
11:54 7 8 mph 1015.8mb 68f 67f
11:48 7 8 mph 1015.7mb 68f 66f
11:42 7 8 mph 1015.7mb 68f 67f
11:36 7 9 mph 1015.7mb 68f 66f
11:30 7 8 mph 1015.6mb 68f 66f
11:24 6 8 mph 1015.6mb 68f 67f
11:18 6 7 mph 1015.7mb 68f 67f
11:12 6 7 mph 1015.6mb 68f 67f
11:06 6 7 mph 1015.7mb 68f 66f
11:00 6 7 mph 1015.8mb 68f 66f
10:54 6 7 mph 1016mb 68f 66f
10:48 6 7 mph 1015.8mb 68f 66f
10:42 7 8 mph 1015.8mb 68f 66f
10:36 7 9 mph 1015.7mb 68f 66f
10:30 8 9 mph 1015.8mb 68f 66f
10:24 9 10 mph 1015.7mb 68f 66f
10:18 10 11 mph 1015.7mb 68f 66f
10:12 2 6 mph 1015.7mb 68f 69f
10:06 3 6 mph 1015.6mb 68f 70f
10:00  -  6 mph 1015.6mb 68f 70f
9:54 2 5 mph 1015.7mb 68f 69f
9:48 3 7 mph 1015.8mb 68f 68f
9:42 2 5 mph 1015.9mb 68f 69f
9:36 3 6 mph 1016mb 68f 69f
9:30  -  6 mph 1016.1mb 68f 69f
9:24 3 6 mph 1016.1mb 68f 68f
9:18 1 6 mph 1016mb 68f 68f
9:12 2 6 mph 1016mb 68f 68f
9:06 6 8 mph 1015.9mb 68f 67f
9:00 1 5 mph 1015.8mb 68f 67f
8:54 5 8 mph 1015.8mb 68f 67f
8:48 3 7 mph 1015.7mb 68f 67f
8:42 6 9 mph 1015.7mb 68f 66f
8:36 6 8 mph 1015.7mb 68f 65f
8:30 6 10 mph 1015.6mb 68f 65f
8:24 5 8 mph 1015.6mb 68f 65f
8:18 5 8 mph 1015.5mb 68f 65f
8:12 3 8 mph 1015.3mb 68f 65f
8:06 6 8 mph 1015.2mb 68f 65f
8:00 5 8 mph 1015.2mb 68f 64f
7:54 6 8 mph 1015.2mb 68f 64f
7:48 6 8 mph 1015.2mb 68f 64f
7:42 6 9 mph 1015.2mb 68f 63f
7:36 7 9 mph 1015.2mb 68f 63f
7:24 7 9 mph 1015.2mb 68f 62f
7:18 8 10 mph 1015.2mb 68f 62f
7:00 9 11 mph 1015mb 68f 61f
6:54 10 11 mph 1015mb 68f 61f
6:48 9 13 mph 1015mb 68f 61f
6:30 9 11 mph 1014.9mb 68f 61f
6:18 8 11 mph 1014.8mb 68f 61f
6:12 9 13 mph 1014.7mb 68f 61f
6:00 10 13 mph 1014.6mb 68f 61f
5:54 9 11 mph 1014.5mb 68f 61f
5:48 9 11 mph 1014.4mb 68f 61f
5:42 7 11 mph 1014.4mb 68f 61f
5:30 8 10 mph 1014.4mb 68f 60f
5:24 8 10 mph 1014.4mb 69f 60f
5:18 6 9 mph 1014.4mb 68f 60f
5:12 8 10 mph 1014.4mb 68f 60f
5:06 7 10 mph 1014.2mb 68f 60f
5:00 7 10 mph 1014.2mb 69f 60f
4:54 8 10 mph 1014.2mb 69f 61f
4:48 8 11 mph 1014.2mb 68f 61f
4:42 8 10 mph 1014.2mb 68f 61f
4:36 8 10 mph 1014.2mb 69f 61f
4:30 8 10 mph 1014.2mb 69f 61f
4:24 7 9 mph 1014.2mb 69f 61f
4:18 8 9 mph 1014.2mb 69f 61f
4:12 8 10 mph 1014.1mb 68f 61f
4:06 7 8 mph 1014.1mb 68f 61f
4:00 6 7 mph 1014.1mb 69f 61f
3:54 5 7 mph 1014mb 68f 61f
3:48 7 8 mph 1014mb 68f 62f
3:42 6 7 mph 1014mb 68f 62f
3:36 5 7 mph 1013.9mb 69f 62f
3:30 5 6 mph 1013.9mb 69f 62f
3:24 5 6 mph 1013.8mb 69f 62f
3:18 3 6 mph 1013.8mb 68f 62f
3:12 5 7 mph 1013.8mb 68f 62f
3:06 6 8 mph 1013.8mb 68f 62f
3:00 6 7 mph 1013.8mb 68f 62f
2:54 7 8 mph 1013.7mb 68f 62f
2:48 6 8 mph 1013.8mb 67f 63f
2:42 7
mph
1013.6mb 66f 63f
2:36 6 7 mph 1013.8mb 65f 63f
2:30 6
mph
1013.8mb 67f 62f
2:24 5 6 mph 1013.8mb 66f 62f
2:06 6 7 mph 1014mb 66f 62f
2:00 6 7 mph 1014mb 66f 62f
1:48 6 8 mph 1014.1mb 66f 63f
1:42 7 8 mph 1014.1mb 66f 63f
1:24 5 7 mph 1014mb 65f 63f
1:06 5 6 mph 1014.1mb 66f 63f
1:00 5 7 mph 1014mb 69f 63f
12:48 5 9 mph 1014.2mb 69f 63f
12:42 7 8 mph 1014mb 69f 63f
12:24 6 8 mph 1013.9mb 69f 63f
12:18 6 8 mph 1013.9mb 69f 63f
12:06 7 8 mph 1013.9mb 69f 63f
12:00 7 8 mph 1014mb 69f 64f
jeu. 09/22 11:48 7 9 mph 1013.9mb 69f 64f
11:42 6 8 mph 1013.9mb 69f -
11:24 7 8 mph 1014mb 69f 64f
11:18 6 7 mph 1014mb 69f 64f
11:12 5 6 mph 1014mb 69f 64f
11:06 5 6 mph 1013.9mb 69f 64f
11:00 3 6 mph 1013.9mb 69f 64f
10:54 5 6 mph 1013.8mb 69f 64f
10:48 5 6 mph 1013.8mb 69f 64f
10:42 5 6 mph 1013.8mb 70f 64f
10:36 3 5 mph 1014mb 70f 64f
10:30 3 6 mph 1013.9mb 70f 64f
10:24 5 6 mph 1013.8mb 70f 64f
10:18 5 6 mph 1013.8mb 70f 64f
10:12 3 5 mph 1013.9mb 70f 64f
10:06 5 7 mph 1013.8mb 70f 65f
10:00 6 7 mph 1013.7mb 70f 65f
9:54 5 6 mph 1013.6mb 70f 65f
9:48 5 6 mph 1013.7mb 70f 65f
9:42 5 6 mph 1013.6mb 70f 65f
9:36 2 8 mph 1013.6mb 70f 66f
9:30 7 10 mph 1013.6mb 70f 66f
9:24 6 9 mph 1013.6mb 70f 66f
9:18 5 7 mph 1013.5mb 70f 66f
9:12 7 8 mph 1013.5mb 70f 66f
9:06 6 8 mph 1013.3mb 70f 66f
9:00 8 9 mph 1013.2mb 70f 66f
8:54 7 8 mph 1013.2mb 70f 66f
8:48 8 11 mph 1013.2mb 70f 66f
8:42 6 10 mph 1013mb 70f 66f
8:36 8 10 mph 1013.1mb 70f 66f
8:30 6 8 mph 1013.1mb 70f 66f
8:24 6 8 mph 1013mb 70f 66f
8:18 6 9 mph 1012.9mb 70f 66f
8:12 6 7 mph 1012.9mb 70f 66f
8:00 5 8 mph 1012.8mb 70f 66f
7:48 6 8 mph 1012.8mb 70f 66f
7:42 7 9 mph 1012.7mb 70f 66f
7:30 8 9 mph 1012.5mb - -
7:24 8 9 mph 1012.4mb 70f -
7:18  -  mph 1012.4mb 70f 67f
7:06  -  mph 1012.4mb 70f 67f
7:00 6 8 mph 1012.3mb 70f 67f
6:48 7 9 mph 1012.4mb 70f 67f
6:42 7 8 mph 1012.5mb 70f -
6:24 7 8 mph 1012.8mb 70f -
6:06 8 9 mph - 70f 68f
6:00 8 9 mph 1012.7mb 70f -
5:48 9 11 mph 1012.8mb 70f 68f
5:42 9 10 mph 1012.7mb 70f 68f
5:30 9 11 mph 1012.7mb 70f 68f
5:24 10 11 mph 1012.7mb 70f 68f
5:06 9 10 mph 1012.7mb 70f 69f
5:00 9 10 mph 1012.7mb 70f 69f
4:54 7 9 mph 1012.6mb 70f 69f
4:48 8 10 mph 1012.6mb 70f -
4:42 9 10 mph 1012.6mb 70f -
4:36 10 11 mph 1012.6mb 70f -
4:30 10 13 mph - 70f 68f
4:24 10 13 mph - 69f 68f
4:18 10 11 mph 1012.6mb 69f -
4:12 9 11 mph 1012.6mb 69f -
4:06 9 11 mph 1012.6mb 69f -
4:00 9 10 mph - 69f 68f
3:54 10 11 mph - 69f 69f
3:48 8 11 mph 1012.7mb 69f -
3:42 9 11 mph 1012.7mb 69f -
3:36 10 13 mph 1012.7mb 70f -
3:30 10 13 mph 1012.9mb 70f 69f
3:24 10 13 mph 1013mb 69f 68f
3:18 9 11 mph 1012.9mb 69f 69f
3:12 10
mph
1012.8mb 69f 69f
3:06 9 13 mph 1012.8mb 69f 69f
3:00 11 14 mph 1012.9mb 69f 69f
2:54 13 15 mph 1012.9mb 69f 69f
2:48 11 14 mph 1012.9mb 69f 69f
2:42 8 14 mph 1013mb 69f 69f
2:36 11 14 mph 1013mb 69f 69f
2:30 9 11 mph 1013.1mb 69f 68f
2:24 10 11 mph 1013.2mb 69f 68f
2:18 9 10 mph 1013.3mb 69f 68f
2:12 9 10 mph 1013.2mb 69f 68f
2:06 8 10 mph 1013.2mb 69f 68f
2:00 8 9 mph 1013.3mb 68f 69f
1:54 9 10 mph 1013.3mb 69f 68f
1:48 10 13 mph 1013.4mb 68f 68f
1:42 11 14 mph 1013.6mb 67f 68f
1:36 10 14 mph 1013.5mb 67f 68f
1:30 9 11 mph 1013.4mb 66f 68f
1:24 10 13 mph 1013.5mb 66f 68f
1:18 9 13 mph 1013.5mb - 68f
1:12 10 13 mph 1013.6mb - 68f
1:06 10 11 mph 1013.7mb - 68f
1:00 9 11 mph 1013.8mb 67f 67f
12:54 10 11 mph 1013.9mb 67f 67f
12:48 9 10 mph 1013.8mb 67f 67f
12:42 8 9 mph 1013.9mb 69f 67f
12:36 8 9 mph 1014.1mb 69f 67f
12:30 9 11 mph 1014.2mb 69f 67f
12:24 11 13 mph 1014.4mb 69f 67f
12:18 8 11 mph 1014.3mb 69f 68f
12:12 8 10 mph 1014.1mb 69f 68f
12:06 9 11 mph 1014.1mb 69f 68f
12:00 9 11 mph 1014.3mb 69f 68f
11:54 10 14 mph 1014.2mb 69f 68f
11:48 13 16 mph 1014.4mb 69f 68f
11:42 14 17 mph 1014.4mb 69f 68f
11:36 13 16 mph 1014.4mb 69f 68f
11:30 10 15 mph 1014.4mb 69f 68f
11:24 11 17 mph 1014.3mb 69f 68f
11:18 14 17 mph 1014.3mb 69f 67f
11:12 15 17 mph 1014.2mb 69f 68f
11:06 15 18 mph 1014.2mb 69f 68f
11:00 15 18 mph 1014.1mb 69f 68f
10:54 13 20 mph 1014.2mb 69f 68f
10:48 15 20 mph 1014.1mb 69f 68f
10:42 17 20 mph 1014.1mb 69f 67f
10:36 16 21 mph 1014mb 69f 67f
10:30 15 20 mph 1014.1mb 68f 67f
10:24 14 21 mph 1014.2mb 68f 67f
10:18 15 21 mph 1014.2mb 68f 67f
10:12 17 21 mph 1014.2mb 68f 67f
10:06 14 16 mph 1014.1mb 68f 67f
10:00 13 17 mph 1014.1mb 69f 67f
9:54 13 15 mph 1014mb 69f 67f
9:48 15 18 mph 1013.9mb 69f 67f
9:42 15 16 mph 1013.9mb 69f 67f
9:36 14 16 mph 1013.9mb 69f 67f
9:30 10 16 mph 1013.8mb 69f 67f
9:24 10 17 mph 1013.7mb 69f 67f
9:18 13 17 mph 1013.6mb 69f 67f
9:12 10 13 mph 1013.5mb 69f 67f
9:06 9 15 mph 1013.5mb 68f 67f
9:00 13 17 mph 1013.4mb 68f 67f
8:54 10 15 mph 1013.4mb 68f 67f
8:48 9 13 mph 1013.3mb 68f 67f
8:42 8 11 mph 1013.2mb 68f 67f
8:36 11 15 mph 1013.2mb 68f 67f
8:30 9 11 mph 1013.2mb 68f 67f
8:24 9 11 mph 1013.2mb 68f 67f
8:18 6 10 mph 1013.1mb 68f 67f
8:12 9 11 mph 1013.1mb 68f 67f
8:06 7 10 mph 1013mb 68f 67f
8:00 8 10 mph 1012.9mb 68f 67f
7:54 8 13 mph 1012.9mb 68f 67f
7:48 8 9 mph 1012.9mb 68f 67f
7:42 6 13 mph 1012.7mb 68f 67f
7:36 11 14 mph 1012.7mb 68f 67f
7:30 9 14 mph 1012.6mb 68f 67f
7:24 11 14 mph 1012.4mb 68f 67f
7:18 11 15 mph 1012.4mb 68f 67f
7:12 9 13 mph 1012.5mb 68f 67f
7:06 9 15 mph 1012.6mb 68f 67f
7:00 9 11 mph 1012.6mb 68f 66f
6:54 8 10 mph 1012.5mb 68f 66f
6:48 8 10 mph 1012.7mb 68f 66f
6:42 6 10 mph 1012.7mb 68f 66f
6:36 6 9 mph 1012.8mb 68f 66f
6:30 6 9 mph 1012.8mb 68f 66f
6:24 6 9 mph 1012.7mb 68f 66f
6:18 7 10 mph 1012.6mb 68f 66f
6:12 5 8 mph 1012.5mb 68f 67f
6:06 6 9 mph 1012.5mb 68f 67f
6:00 6 8 mph 1012.4mb 68f 66f
5:54 7 9 mph 1012.3mb 67f 66f
5:48 6 8 mph 1012.2mb 67f 66f
5:42 6 9 mph 1012.1mb 67f 66f
5:36 7 8 mph 1012.1mb 67f 66f
5:30 7 9 mph 1012.2mb 67f 66f
5:24 7 10 mph 1012.1mb 67f 66f
5:18 7 8 mph 1012.1mb 67f 66f
5:12 7 9 mph 1012.1mb 67f 66f
5:06 7 9 mph 1012.1mb 67f 66f
5:00 8 10 mph 1012.1mb 67f 66f
4:54 7 10 mph 1012.1mb 67f 66f
4:48 8 9 mph 1012.1mb 67f 66f
4:42 7 10 mph 1012.1mb 67f 66f
4:36 8 10 mph 1012.1mb 67f 66f
4:30 6 11 mph 1012.2mb 67f 66f
4:24 6 9 mph 1012.2mb 67f 67f
4:18 7 10 mph 1012.2mb 67f 66f
4:12 6 8 mph 1012.2mb 67f 67f
4:06 7 8 mph 1012.2mb 67f 67f
4:00 5 7 mph 1012.2mb 67f 67f
3:54 5 7 mph 1012.3mb 67f 67f
3:48 6 9 mph 1012.3mb 67f 67f
3:42 7 8 mph 1012.2mb 67f 67f
3:36 6 9 mph 1012.2mb 67f 67f
3:30 7 9 mph 1012.2mb 67f 67f
3:24 6 10 mph 1012.2mb 67f 67f
3:18 7 8 mph 1012.2mb 67f 67f
3:12 5 7 mph 1012.3mb 67f 67f
3:06 6 9 mph 1012.3mb 67f 67f
3:00 7 8 mph 1012.3mb 67f 66f
2:54 6 9 mph 1012.4mb 67f 67f
2:48 9 11 mph 1012.4mb 67f 67f
2:42 8 10 mph 1012.3mb 67f 67f
2:36 7 9 mph 1012.4mb 67f 67f
2:30 5 7 mph 1012.4mb 67f 67f
2:24 5 8 mph 1012.4mb 67f 67f
2:18 3 8 mph 1012.4mb 67f 67f
2:12 6 8 mph 1012.3mb 67f 67f
2:06 5 9 mph 1012.3mb 67f 67f
2:00 8 10 mph 1012.2mb 67f 67f
1:54 6 8 mph 1012.2mb 67f 67f
1:48 6 8 mph 1012.2mb 67f 67f
1:42 6 9 mph 1012.1mb 68f 67f
1:36 6 8 mph 1012mb 68f 67f
1:30 7 8 mph 1012mb 68f 67f
1:24 8 10 mph 1012mb 68f 67f
1:18 8 9 mph 1012.1mb 68f 67f
1:12 9 10 mph 1012mb 68f 67f
1:06 8 10 mph 1012mb 68f 67f
1:00 6 10 mph 1012mb 68f 67f
12:54 7 10 mph 1012.1mb 69f 67f
12:48 6 8 mph 1012.1mb 69f -
12:42 6 9 mph 1012.1mb 69f 67f
12:36 6 8 mph 1012.2mb 69f 68f
12:30 5 7 mph 1012.2mb 69f 67f
12:24 5 6 mph 1012.2mb 69f 67f
12:18 6 9 mph 1012.2mb 69f 67f
12:12 6 7 mph 1012.3mb 69f 68f
12:06 5 9 mph 1012.4mb 69f 68f
12:00 7 8 mph 1012.4mb 69f 68f
mer. 09/21 11:54 6 9 mph 1012.4mb 69f 68f
11:48 5 10 mph 1012.4mb 69f 68f
11:42 7 8 mph 1012.3mb 69f 68f
11:36 7 9 mph 1012.3mb 69f 68f
11:30 7 8 mph 1012.3mb 69f 68f
11:24 7 8 mph 1012.3mb 69f 68f
11:18 7 8 mph 1012.3mb 69f 68f
11:12 6 7 mph 1012.2mb 69f 69f
11:06 6 8 mph 1012.2mb 69f 68f
11:00 6 7 mph 1012.2mb 69f 69f
10:54 6 8 mph 1012.1mb 69f 69f
10:48 7 9 mph 1012.1mb 69f -
10:42 7 8 mph 1012.1mb 69f -
10:36 8
mph
1012.1mb 69f -
10:30 7 8 mph 1012mb 69f 69f
10:24 6 7 mph 1012mb 69f 69f
10:18 6 7 mph 1012mb 69f 69f
10:12 5 7 mph 1011.9mb 69f 69f
10:06 6
mph
1011.9mb 69f 69f
10:00 6 7 mph 1011.8mb 69f 69f
9:54 6
mph
1011.8mb 69f 69f
9:48 6 7 mph 1011.8mb 69f 69f
9:42 6 7 mph 1011.8mb 68f 69f
9:36 5
mph
1011.8mb 68f 69f
9:30 3 6 mph 1011.8mb 68f 69f
9:24 3 5 mph 1011.8mb 68f 69f
9:18 3 6 mph 1011.8mb 68f 69f
9:12 5 6 mph 1011.7mb 68f 69f
9:06 6 7 mph 1011.8mb 68f 69f